Time;durP1;ratioP1;P1;durP2;ratioP2;P2;SDS_P1;SDS_P2;PMS_P1;PMS_P2;Temp;Humidity;BMP_temperature;BMP_pressure;BME280_temperature;BME280_humidity;BME280_pressure;Samples;Min_cycle;Max_cycle;Signal;HPM_P1;HPM_P2
2021/10/07 00:01:23;;;;;;;42.45;29.90;;;;;;;11.63;82.39;97761.61;1826100;77;25261;-85
2021/10/07 00:03:50;;;;;;;41.42;28.95;;;;;;;11.66;82.40;97756.31;1826556;77;27331;-84
2021/10/07 00:06:16;;;;;;;44.85;30.02;;;;;;;11.67;82.41;97761.52;1826359;77;25624;-84
2021/10/07 00:08:43;;;;;;;45.43;30.27;;;;;;;11.67;82.38;97754.75;1826177;77;25755;-85
2021/10/07 00:11:12;;;;;;;41.33;29.87;;;;;;;11.67;82.37;97754.75;1826181;77;25718;-84
2021/10/07 00:13:39;;;;;;;42.05;30.88;;;;;;;11.67;82.34;97756.11;1826502;77;25678;-84
2021/10/07 00:16:07;;;;;;;41.40;29.72;;;;;;;11.67;82.31;97754.75;1826257;77;27348;-84
2021/10/07 00:18:38;;;;;;;41.40;30.62;;;;;;;11.65;82.28;97752.77;1815692;77;25779;-84
2021/10/07 00:21:05;;;;;;;39.92;29.72;;;;;;;11.64;82.28;97755.17;1826534;77;25722;-84
2021/10/07 00:23:37;;;;;;;40.12;30.95;;;;;;;11.67;82.35;97760.68;1826531;77;25675;-84
2021/10/07 00:26:01;;;;;;;40.73;30.62;;;;;;;11.68;82.31;97760.48;1818601;77;25742;-84
2021/10/07 00:28:31;;;;;;;40.28;30.27;;;;;;;11.66;82.30;97759.85;1826574;77;27336;-84
2021/10/07 00:30:58;;;;;;;39.18;28.67;;;;;;;11.63;82.25;97758.91;1833696;77;25974;-85
2021/10/07 00:33:31;;;;;;;40.38;30.08;;;;;;;11.59;82.25;97752.28;1826007;77;25735;-84
2021/10/07 00:36:40;;;;;;;41.13;30.95;;;;;;;11.55;82.23;97763.19;1825695;77;25521;-84
2021/10/07 00:41:09;;;;;;;37.70;28.70;;;;;;;11.51;82.37;97760.06;1826588;77;27419;-85
2021/10/07 00:43:35;;;;;;;40.67;29.52;;;;;;;11.49;82.42;97761.30;1825700;77;25226;-85
2021/10/07 00:46:02;;;;;;;40.03;30.45;;;;;;;11.50;82.48;97762.97;1826476;77;25768;-85
2021/10/07 00:48:29;;;;;;;39.85;29.52;;;;;;;11.51;82.48;97760.58;1821031;77;25680;-85
2021/10/07 00:50:55;;;;;;;40.15;29.72;;;;;;;11.51;82.46;97765.98;1814441;77;25652;-85
2021/10/07 00:53:22;;;;;;;37.17;29.07;;;;;;;11.50;82.46;97760.27;1818345;77;27340;-83
2021/10/07 00:55:49;;;;;;;38.78;30.30;;;;;;;11.52;82.46;97762.25;1827022;77;25691;-82
2021/10/07 00:58:17;;;;;;;43.40;30.32;;;;;;;11.51;82.46;97764.64;1829460;77;25658;-83
2021/10/07 01:00:45;;;;;;;41.75;30.72;;;;;;;11.52;82.46;97763.59;1829177;77;25751;-82
2021/10/07 01:03:12;;;;;;;42.45;31.07;;;;;;;11.52;82.50;97766.30;1829703;77;25636;-85
2021/10/07 01:05:39;;;;;;;40.33;30.82;;;;;;;11.53;82.50;97765.27;1829690;77;27348;-84
2021/10/07 01:08:07;;;;;;;43.63;30.55;;;;;;;11.52;82.50;97764.95;1829336;77;25727;-85
2021/10/07 01:10:34;;;;;;;42.88;30.70;;;;;;;11.50;82.50;97762.45;1829348;77;25671;-84
2021/10/07 01:13:00;;;;;;;40.65;31.55;;;;;;;11.50;82.52;97760.27;1829362;77;26210;-84
2021/10/07 01:15:27;;;;;;;37.42;29.23;;;;;;;11.49;82.51;97764.01;1829526;77;25673;-84
2021/10/07 01:17:54;;;;;;;38.25;29.57;;;;;;;11.50;82.55;97764.32;1829451;77;28689;-85
2021/10/07 01:20:20;;;;;;;44.73;29.52;;;;;;;11.51;82.62;97760.06;1829193;77;25648;-84
2021/10/07 01:22:47;;;;;;;40.50;29.23;;;;;;;11.53;82.62;97758.50;1829713;77;25674;-84
2021/10/07 01:25:13;;;;;;;37.80;28.67;;;;;;;11.55;82.60;97757.78;1829193;77;25698;-85
2021/10/07 01:27:40;;;;;;;36.15;28.85;;;;;;;11.58;82.59;97757.38;1829182;77;25676;-84
2021/10/07 01:30:12;;;;;;;39.15;30.23;;;;;;;11.58;82.54;97762.78;1829433;77;28476;-85
2021/10/07 01:32:43;;;;;;;38.78;28.77;;;;;;;11.57;82.55;97758.41;1829513;77;25643;-85
2021/10/07 01:35:10;;;;;;;39.88;28.95;;;;;;;11.59;82.60;97754.98;1829726;77;25770;-85
2021/10/07 01:37:37;;;;;;;39.13;29.23;;;;;;;11.58;82.56;97762.78;1829643;77;25798;-85
2021/10/07 01:40:08;;;;;;;39.00;28.98;;;;;;;11.58;82.56;97760.08;1829166;77;25544;-85
2021/10/07 01:42:39;;;;;;;36.50;28.23;;;;;;;11.59;82.53;97764.44;1828985;77;27166;-84
2021/10/07 01:45:08;;;;;;;35.13;28.70;;;;;;;11.60;82.57;97762.02;1821517;77;26345;-85
2021/10/07 01:47:35;;;;;;;41.15;28.27;;;;;;;11.62;82.55;97769.41;1812130;77;25857;-85
2021/10/07 01:50:04;;;;;;;38.75;28.20;;;;;;;11.60;82.51;97764.73;1821450;77;25743;-85
2021/10/07 01:52:31;;;;;;;39.25;27.87;;;;;;;11.57;82.51;97767.87;1828107;77;25726;-85
2021/10/07 01:54:57;;;;;;;38.63;28.98;;;;;;;11.57;82.51;97767.04;1828576;77;27995;-84
2021/10/07 01:57:24;;;;;;;38.05;28.40;;;;;;;11.57;82.56;97768.39;1798297;78;25704;-85
2021/10/07 01:59:50;;;;;;;41.23;27.95;;;;;;;11.54;82.57;97765.58;1807920;78;25732;-85
2021/10/07 02:02:17;;;;;;;38.98;27.13;;;;;;;11.51;82.55;97762.77;1790784;78;25826;-86
2021/10/07 02:04:44;;;;;;;37.05;28.65;;;;;;;11.52;82.57;97766.30;1818181;77;25479;-86
2021/10/07 02:07:10;;;;;;;37.75;28.20;;;;;;;11.50;82.59;97764.32;1814383;77;27343;-86
2021/10/07 02:09:37;;;;;;;38.15;27.95;;;;;;;11.50;82.61;97762.97;1818330;77;25731;-85
2021/10/07 02:12:04;;;;;;;38.25;27.32;;;;;;;11.49;82.66;97768.06;1803154;78;25745;-85
2021/10/07 02:14:31;;;;;;;36.60;27.40;;;;;;;11.49;82.65;97769.41;1816932;78;26147;-85
2021/10/07 02:16:57;;;;;;;40.15;27.62;;;;;;;11.47;82.62;97771.52;1812206;78;25648;-85
2021/10/07 02:19:24;;;;;;;42.38;28.70;;;;;;;11.46;82.64;97772.55;1818579;78;27349;-85
2021/10/07 02:21:51;;;;;;;38.05;28.75;;;;;;;11.46;82.66;97777.96;1817758;78;26353;-84
2021/10/07 02:24:18;;;;;;;35.95;27.15;;;;;;;11.45;82.65;97774.42;1811226;77;25705;-85
2021/10/07 02:26:45;;;;;;;42.43;29.60;;;;;;;11.43;82.66;97775.67;1798379;77;26151;-86
2021/10/07 02:29:12;;;;;;;33.50;26.97;;;;;;;11.39;82.71;97775.23;1819364;77;25799;-85
2021/10/07 02:31:38;;;;;;;34.78;26.62;;;;;;;11.43;82.73;97780.55;1812945;77;28186;-84
2021/10/07 02:34:05;;;;;;;38.90;26.10;;;;;;;11.41;82.73;97785.84;1811767;78;25778;-85
2021/10/07 02:36:31;;;;;;;36.03;27.05;;;;;;;11.40;82.76;97789.07;1808316;78;25794;-85
2021/10/07 02:38:58;;;;;;;33.67;25.92;;;;;;;11.39;82.71;97791.98;1810481;77;25671;-85
2021/10/07 02:41:26;;;;;;;34.27;26.80;;;;;;;11.37;82.74;97790.00;1816690;78;25743;-86
2021/10/07 02:43:53;;;;;;;38.98;25.25;;;;;;;11.38;82.80;97793.02;1818781;77;27488;-85
2021/10/07 02:46:19;;;;;;;35.45;27.10;;;;;;;11.37;82.81;97789.48;1818097;77;26409;-85
2021/10/07 02:48:46;;;;;;;38.13;26.37;;;;;;;11.34;82.81;97785.02;1816332;76;26243;-84
2021/10/07 02:51:12;;;;;;;35.52;26.52;;;;;;;11.33;82.88;97786.89;1800630;77;25792;-85
2021/10/07 02:53:39;;;;;;;32.35;26.00;;;;;;;11.34;82.89;97784.51;1812275;77;25217;-85
2021/10/07 02:56:06;;;;;;;39.38;27.82;;;;;;;11.35;82.89;97793.45;1793266;78;27997;-85
2021/10/07 02:58:34;;;;;;;40.05;28.60;;;;;;;11.35;82.92;97793.45;1825967;77;25682;-85
2021/10/07 03:01:01;;;;;;;40.95;28.42;;;;;;;11.35;82.95;97793.45;1797037;77;25691;-85
2021/10/07 03:03:28;;;;;;;35.92;27.62;;;;;;;11.35;82.98;97801.56;1811418;77;25619;-85
2021/10/07 03:07:19;;;;;;;39.10;25.82;;;;;;;11.42;83.02;97807.27;1865694;75;25501;-87
2021/10/07 03:09:46;;;;;;;35.35;26.62;;;;;;;11.38;83.05;97807.88;1774152;78;25772;-85
2021/10/07 03:12:12;;;;;;;36.50;27.10;;;;;;;11.41;83.07;97807.47;1809621;78;27363;-85
2021/10/07 03:16:59;;;;;;;42.80;26.97;;;;;;;11.47;83.05;97807.46;1874111;74;26196;-85
2021/10/07 03:19:26;;;;;;;34.92;25.23;;;;;;;11.41;83.06;97810.17;1843466;77;25744;-86
2021/10/07 03:21:53;;;;;;;33.58;24.72;;;;;;;11.45;83.06;97811.44;1825001;77;27185;-86
2021/10/07 03:24:19;;;;;;;36.60;26.87;;;;;;;11.46;82.99;97813.94;1815580;77;25748;-85
2021/10/07 03:26:46;;;;;;;35.08;25.30;;;;;;;11.48;82.96;97820.46;1809756;77;25746;-86
2021/10/07 03:29:13;;;;;;;35.08;25.55;;;;;;;11.49;82.90;97822.13;1826549;77;25701;-86
2021/10/07 03:32:29;;;;;;;33.25;25.48;;;;;;;11.47;82.83;97826.38;1861224;76;26194;-84
2021/10/07 03:34:56;;;;;;;31.77;25.52;;;;;;;11.41;82.89;97825.05;1825526;77;25888;-84
2021/10/07 03:37:23;;;;;;;33.78;25.20;;;;;;;11.39;82.96;97824.41;1826498;77;27993;-84
2021/10/07 03:39:50;;;;;;;33.08;26.07;;;;;;;11.38;82.97;97824.09;1827244;77;25735;-84
2021/10/07 03:44:06;;;;;;;33.30;25.60;;;;;;;11.42;83.06;97828.06;1852167;74;25732;-86
2021/10/07 03:46:33;;;;;;;36.85;25.77;;;;;;;11.38;83.06;97829.50;1841335;75;25800;-86
2021/10/07 03:49:00;;;;;;;34.43;25.95;;;;;;;11.40;83.09;97826.08;1838005;76;28004;-86
2021/10/07 03:51:27;;;;;;;32.53;24.85;;;;;;;11.42;83.06;97828.06;1842968;76;25708;-86
2021/10/07 03:53:53;;;;;;;32.05;25.02;;;;;;;11.42;83.10;97827.55;1843904;75;25855;-86
2021/10/07 03:56:20;;;;;;;35.43;25.75;;;;;;;11.44;83.10;97830.88;1839366;77;25765;-86
2021/10/07 03:58:46;;;;;;;37.08;26.33;;;;;;;11.44;83.02;97834.09;1844676;77;25737;-85
2021/10/07 04:01:14;;;;;;;30.90;24.35;;;;;;;11.42;83.01;97826.71;1843922;75;28268;-85
2021/10/07 04:03:41;;;;;;;31.77;24.65;;;;;;;11.41;83.08;97833.15;1842978;76;25718;-85
2021/10/07 04:06:07;;;;;;;35.15;25.37;;;;;;;11.39;83.04;97825.77;1838748;75;26359;-85
2021/10/07 04:08:34;;;;;;;34.40;24.67;;;;;;;11.36;83.04;97833.76;1842634;75;25811;-85
2021/10/07 04:11:01;;;;;;;35.40;25.57;;;;;;;11.34;83.08;97828.27;1810290;75;25245;-84
2021/10/07 04:13:27;;;;;;;34.45;22.98;;;;;;;11.34;83.11;97833.67;1825965;77;27360;-85
2021/10/07 04:15:54;;;;;;;32.58;25.27;;;;;;;11.34;83.12;97839.08;1850458;75;25649;-85
2021/10/07 04:18:21;;;;;;;34.10;25.05;;;;;;;11.34;83.14;97836.37;1844750;76;26451;-86
2021/10/07 04:20:50;;;;;;;35.00;25.70;;;;;;;11.35;83.17;97838.05;1835215;76;26430;-85
2021/10/07 04:23:19;;;;;;;30.37;23.98;;;;;;;11.36;83.18;97847.27;1842031;76;25797;-85
2021/10/07 04:28:20;;;;;;;33.53;25.23;;;;;;;11.42;83.25;97852.39;1873189;75;25531;-84
2021/10/07 04:30:46;;;;;;;29.87;23.67;;;;;;;11.39;83.24;97854.14;1850442;75;25637;-83
2021/10/07 04:33:13;;;;;;;33.38;23.77;;;;;;;11.39;83.24;97853.63;1840145;76;28057;-85
2021/10/07 04:35:41;;;;;;;32.73;26.30;;;;;;;11.41;83.30;97856.12;1831714;75;25728;-85
2021/10/07 04:38:08;;;;;;;33.58;25.15;;;;;;;11.44;83.30;97859.27;1844670;76;25287;-84
2021/10/07 04:40:36;;;;;;;31.80;23.73;;;;;;;11.47;83.29;97858.83;1836040;75;26513;-85
2021/10/07 04:43:03;;;;;;;36.08;24.82;;;;;;;11.49;83.26;97855.92;1814124;77;25256;-84
2021/10/07 04:45:30;;;;;;;34.85;24.52;;;;;;;11.50;83.22;97861.64;1842122;75;27435;-84
2021/10/07 04:47:57;;;;;;;29.70;24.18;;;;;;;11.50;83.22;97864.34;1843756;75;25823;-83
2021/10/07 04:50:23;;;;;;;32.75;24.20;;;;;;;11.51;83.22;97864.66;1830966;75;26358;-83
2021/10/07 04:52:50;;;;;;;35.20;24.12;;;;;;;11.51;83.23;97862.80;1822843;77;26091;-86
2021/10/07 04:55:17;;;;;;;30.85;25.05;;;;;;;11.52;83.23;97863.11;1843397;76;25711;-84
2021/10/07 04:57:43;;;;;;;35.05;24.85;;;;;;;11.50;83.15;97867.05;1853911;76;27318;-84
2021/10/07 05:00:11;;;;;;;33.20;25.08;;;;;;;11.49;83.17;97864.03;1822097;77;25703;-85
2021/10/07 05:02:39;;;;;;;32.88;24.63;;;;;;;11.49;83.20;97871.62;1858646;76;26221;-84
2021/10/07 05:05:09;;;;;;;30.48;24.50;;;;;;;11.51;83.26;97876.83;1841364;75;25705;-85
2021/10/07 05:07:38;;;;;;;29.52;24.60;;;;;;;11.52;83.27;97879.84;1827110;77;25693;-84
2021/10/07 05:10:05;;;;;;;31.30;23.25;;;;;;;11.53;83.29;97878.81;1843142;75;27067;-84
2021/10/07 05:12:32;;;;;;;36.35;25.12;;;;;;;11.53;83.23;97876.11;1841507;77;25820;-84
2021/10/07 05:14:58;;;;;;;35.23;25.75;;;;;;;11.54;83.32;97877.78;1839233;76;25810;-84
2021/10/07 05:17:25;;;;;;;36.75;26.40;;;;;;;11.57;83.33;97877.89;1836896;76;25634;-84
2021/10/07 05:19:52;;;;;;;39.40;27.02;;;;;;;11.59;83.29;97883.41;1817095;76;25847;-84
2021/10/07 05:22:18;;;;;;;33.48;25.40;;;;;;;11.59;83.25;97878.00;1843154;75;27342;-84
2021/10/07 05:24:45;;;;;;;36.95;26.10;;;;;;;11.61;83.26;97881.31;1839971;76;25864;-84
2021/10/07 05:27:13;;;;;;;40.85;26.48;;;;;;;11.55;83.14;97882.14;1843529;77;25733;-85
2021/10/07 05:29:39;;;;;;;38.38;26.75;;;;;;;11.53;83.15;97881.00;1843372;75;25324;-84
2021/10/07 05:32:07;;;;;;;33.23;25.85;;;;;;;11.53;83.21;97886.41;1838301;76;25898;-84
2021/10/07 05:34:33;;;;;;;36.25;25.57;;;;;;;11.54;83.30;97884.53;1852482;75;27401;-84
2021/10/07 05:37:00;;;;;;;35.88;26.02;;;;;;;11.55;83.31;97887.03;1837072;76;25948;-84
2021/10/07 05:39:27;;;;;;;32.70;25.65;;;;;;;11.58;83.34;97892.56;1842543;75;26477;-85
2021/10/07 05:41:54;;;;;;;33.60;25.30;;;;;;;11.60;83.33;97891.80;1833978;76;25770;-84
2021/10/07 05:44:20;;;;;;;36.73;25.48;;;;;;;11.58;83.25;97891.20;1834860;76;25753;-84
2021/10/07 05:46:47;;;;;;;36.65;27.55;;;;;;;11.58;83.29;97892.56;1840055;77;28812;-84
2021/10/07 05:49:14;;;;;;;35.05;26.40;;;;;;;11.60;83.30;97891.80;1842242;75;26534;-84
2021/10/07 05:51:41;;;;;;;33.13;27.00;;;;;;;11.58;83.33;97895.27;1832631;75;25814;-85
2021/10/07 05:54:08;;;;;;;37.73;27.85;;;;;;;11.61;83.37;97897.53;1822362;76;25579;-83
2021/10/07 05:56:35;;;;;;;42.15;28.27;;;;;;;11.64;83.37;97897.64;1844848;75;25643;-84
2021/10/07 05:59:01;;;;;;;35.50;27.05;;;;;;;11.68;83.33;97901.09;1851113;75;28174;-84
2021/10/07 06:01:28;;;;;;;37.75;28.02;;;;;;;11.71;83.30;97901.20;1822368;76;25811;-84
2021/10/07 06:03:55;;;;;;;37.65;27.95;;;;;;;11.71;83.27;97896.60;1828642;76;25223;-85
2021/10/07 06:08:12;;;;;;;37.53;26.73;;;;;;;11.77;83.34;97893.64;1877014;76;25563;-84
2021/10/07 06:10:39;;;;;;;38.00;27.60;;;;;;;11.74;83.41;97888.09;1818375;77;26226;-84
2021/10/07 06:13:05;;;;;;;37.58;28.55;;;;;;;11.80;83.33;97890.53;1837483;77;27378;-84
2021/10/07 06:15:32;;;;;;;39.48;29.18;;;;;;;11.81;83.19;97893.03;1819973;77;25760;-84
2021/10/07 06:18:00;;;;;;;41.70;27.95;;;;;;;11.81;83.13;97893.55;1828342;77;25777;-84
2021/10/07 06:22:59;;;;;;;38.35;29.00;;;;;;;11.85;83.21;97894.26;1825952;77;25793;-84
2021/10/07 06:27:16;;;;;;;38.85;28.27;;;;;;;11.88;83.03;97904.67;1868705;76;25556;-85
2021/10/07 06:29:42;;;;;;;37.05;27.40;;;;;;;11.79;83.04;97904.57;1843053;76;25730;-85
2021/10/07 06:32:09;;;;;;;35.28;27.42;;;;;;;11.78;83.09;97909.66;1846948;76;28168;-85
2021/10/07 06:34:36;;;;;;;42.35;31.37;;;;;;;11.77;83.15;97908.52;1833263;75;25750;-85
2021/10/07 06:37:03;;;;;;;38.35;30.20;;;;;;;11.80;83.22;97913.00;1843884;76;25648;-85
2021/10/07 06:39:29;;;;;;;39.45;29.98;;;;;;;11.82;83.20;97913.63;1836689;75;25926;-85
2021/10/07 06:41:56;;;;;;;35.55;28.05;;;;;;;11.85;83.20;97914.55;1813900;77;25741;-85
2021/10/07 06:45:46;;;;;;;39.73;28.30;;;;;;;11.95;83.23;97918.73;1866085;74;25956;-85
2021/10/07 06:48:13;;;;;;;33.78;26.85;;;;;;;11.92;83.25;97920.50;1840896;75;25739;-85
2021/10/07 06:50:42;;;;;;;35.33;27.05;;;;;;;11.96;83.24;97919.02;1844117;75;27381;-85
2021/10/07 06:53:08;;;;;;;35.80;27.60;;;;;;;11.98;83.23;97923.19;1849951;76;25681;-84
2021/10/07 06:55:36;;;;;;;36.77;26.45;;;;;;;12.01;83.29;97920.08;1844030;75;25699;-84
2021/10/07 06:58:03;;;;;;;35.60;25.80;;;;;;;12.03;83.23;97917.16;1840964;77;25647;-84
2021/10/07 07:00:31;;;;;;;31.70;24.85;;;;;;;12.05;83.20;97920.50;1820676;76;25651;-84
2021/10/07 07:02:58;;;;;;;34.58;24.63;;;;;;;12.08;83.15;97920.06;1823543;76;26843;-84
2021/10/07 07:05:26;;;;;;;32.30;24.82;;;;;;;12.11;83.05;97919.66;1844532;77;25722;-84
2021/10/07 07:07:54;;;;;;;36.10;24.52;;;;;;;12.12;82.96;97928.92;1843838;76;25231;-84
2021/10/07 07:13:06;;;;;;;32.53;25.27;;;;;;;12.28;83.06;97924.13;1867235;74;25650;-85
2021/10/07 07:15:35;;;;;;;30.80;25.00;;;;;;;12.29;82.94;97931.22;1818237;77;25897;-85
2021/10/07 07:18:01;;;;;;;34.50;23.90;;;;;;;12.34;82.92;97927.34;1826482;77;27459;-85
2021/10/07 07:20:29;;;;;;;32.17;24.82;;;;;;;12.38;82.86;97927.24;1827217;77;26450;-84
2021/10/07 07:22:56;;;;;;;31.97;24.15;;;;;;;12.43;82.86;97931.00;1826220;77;25807;-85
2021/10/07 07:25:22;;;;;;;28.90;22.10;;;;;;;12.47;82.72;97929.52;1827237;77;25749;-85
2021/10/07 07:27:49;;;;;;;29.48;22.30;;;;;;;12.50;82.57;97925.04;1825964;77;25711;-85
2021/10/07 07:30:16;;;;;;;32.58;22.82;;;;;;;12.52;82.39;97928.37;1822969;77;27378;-86
2021/10/07 07:32:42;;;;;;;30.77;22.52;;;;;;;12.56;82.30;97930.95;1816344;77;26410;-85
2021/10/07 07:35:10;;;;;;;32.30;23.42;;;;;;;12.61;82.21;97928.97;1803960;77;25642;-85
2021/10/07 07:37:36;;;;;;;34.63;26.52;;;;;;;12.63;82.21;97931.79;1825843;77;25727;-85
2021/10/07 07:40:04;;;;;;;37.70;28.35;;;;;;;12.69;82.32;97936.86;1816821;77;25719;-85
2021/10/07 07:42:31;;;;;;;38.85;28.45;;;;;;;12.71;82.40;97934.78;1811227;77;27431;-85
2021/10/07 07:44:57;;;;;;;40.25;27.70;;;;;;;12.75;82.51;97935.20;1824459;77;25785;-85
2021/10/07 07:47:24;;;;;;;36.53;26.40;;;;;;;12.80;82.43;97943.53;1827182;77;25630;-85
2021/10/07 07:49:51;;;;;;;35.58;26.95;;;;;;;12.85;82.27;97939.12;1827215;77;26498;-84
2021/10/07 07:52:17;;;;;;;36.88;27.02;;;;;;;12.92;82.21;97944.55;1802803;77;25716;-85
2021/10/07 07:54:44;;;;;;;36.85;26.75;;;;;;;12.99;82.22;97943.47;1808671;78;27335;-85
2021/10/07 07:57:10;;;;;;;33.38;25.88;;;;;;;13.08;82.14;97946.77;1821360;77;25691;-85
2021/10/07 07:59:37;;;;;;;27.82;22.42;;;;;;;13.16;82.05;97951.97;1809743;77;25731;-85
2021/10/07 08:02:04;;;;;;;30.10;22.25;;;;;;;13.24;81.82;97954.45;1827215;77;26061;-85
2021/10/07 08:04:30;;;;;;;31.85;23.65;;;;;;;13.29;81.66;97951.91;1827202;77;26324;-85
2021/10/07 08:06:58;;;;;;;31.95;23.55;;;;;;;13.39;81.51;97953.36;1820198;77;27375;-83
2021/10/07 08:09:26;;;;;;;29.12;21.68;;;;;;;13.46;81.39;97950.91;1797734;77;25642;-84
2021/10/07 08:11:53;;;;;;;23.95;19.52;;;;;;;13.51;81.34;97952.98;1828259;77;25896;-84
2021/10/07 08:14:19;;;;;;;24.47;19.30;;;;;;;13.55;81.13;97950.95;1830089;77;26430;-83
2021/10/07 08:16:46;;;;;;;25.60;17.98;;;;;;;13.57;80.91;97943.44;1802477;76;25744;-83
2021/10/07 08:21:11;;;;;;;25.70;16.10;;;;;;;13.62;80.75;97948.22;1866373;76;26497;-84
2021/10/07 08:23:37;;;;;;;20.88;16.10;;;;;;;13.56;80.56;97946.37;1824136;77;25814;-85
2021/10/07 08:26:04;;;;;;;20.20;15.28;;;;;;;13.55;80.29;97941.47;1827335;77;27341;-84
2021/10/07 08:28:31;;;;;;;23.90;14.93;;;;;;;13.60;80.30;97946.25;1827257;77;25719;-85
2021/10/07 08:30:57;;;;;;;18.55;15.30;;;;;;;13.63;80.17;97953.95;1827441;77;25632;-84
2021/10/07 08:33:24;;;;;;;19.52;15.63;;;;;;;13.64;80.35;97953.72;1825835;77;25672;-85
2021/10/07 08:35:50;;;;;;;20.72;16.60;;;;;;;13.66;80.42;97949.43;1827363;77;25707;-84
2021/10/07 08:38:59;;;;;;;21.27;16.82;;;;;;;13.72;80.56;97949.94;1877835;74;25635;-83
2021/10/07 08:41:26;;;;;;;24.72;18.40;;;;;;;13.70;80.50;97947.95;1833270;77;25674;-83
2021/10/07 08:43:53;;;;;;;25.52;17.75;;;;;;;13.71;80.34;97956.41;1819350;77;27407;-84
2021/10/07 08:46:20;;;;;;;26.00;16.65;;;;;;;13.68;80.12;97952.23;1832598;77;25717;-82
2021/10/07 08:48:47;;;;;;;21.42;16.20;;;;;;;13.70;80.21;97953.38;1833144;77;25739;-83
2021/10/07 08:51:14;;;;;;;20.00;15.98;;;;;;;13.72;79.77;97955.88;1823434;76;25688;-83
2021/10/07 08:53:40;;;;;;;14.07;10.10;;;;;;;13.66;79.62;97951.63;1832395;77;26360;-84
2021/10/07 08:56:07;;;;;;;12.40;8.53;;;;;;;13.74;79.64;97953.79;1833264;77;27957;-83
2021/10/07 08:58:34;;;;;;;12.70;8.68;;;;;;;13.83;79.50;97949.76;1833137;76;25711;-83
2021/10/07 09:01:01;;;;;;;9.60;8.38;;;;;;;13.91;79.23;97947.60;1833167;77;25755;-83
2021/10/07 09:03:27;;;;;;;12.90;7.92;;;;;;;14.00;79.17;97946.83;1833072;76;25687;-83
2021/10/07 09:06:13;;;;;;;12.60;8.45;;;;;;;14.08;78.78;97946.55;1833212;77;25765;-83
2021/10/07 09:11:06;;;;;;;11.22;8.15;;;;;;;14.33;78.08;97945.20;1873291;74;25583;-83
2021/10/07 09:13:35;;;;;;;12.50;7.97;;;;;;;14.39;78.28;97947.02;1844446;77;25713;-83
2021/10/07 09:18:29;;;;;;;10.58;8.03;;;;;;;14.51;77.59;97945.27;1866788;74;26127;-83
2021/10/07 09:20:58;;;;;;;11.90;7.95;;;;;;;14.45;77.29;97950.78;1818311;75;25713;-83
2021/10/07 09:23:34;;;;;;;10.23;7.70;;;;;;;14.43;77.22;97949.64;1844100;75;27363;-83
2021/10/07 09:26:12;;;;;;;14.28;7.17;;;;;;;14.51;77.00;97945.80;1823810;77;25793;-83
2021/10/07 09:28:50;;;;;;;10.68;7.17;;;;;;;14.60;76.76;97943.95;1836492;76;25744;-82
2021/10/07 09:31:24;;;;;;;9.73;7.62;;;;;;;14.77;76.06;97944.18;1842687;77;25257;-83
2021/10/07 09:33:55;;;;;;;11.57;7.40;;;;;;;14.93;75.84;97945.48;1810196;76;25313;-83
2021/10/07 09:36:21;;;;;;;9.90;7.35;;;;;;;15.08;75.70;97954.94;1844706;75;27399;-84
2021/10/07 09:38:52;;;;;;;10.00;7.75;;;;;;;15.20;75.51;97952.30;1844366;76;25923;-84
2021/10/07 09:41:27;;;;;;;12.47;8.00;;;;;;;15.31;74.86;97949.33;1844757;77;26271;-83
2021/10/07 09:48:01;;;;;;;9.93;7.15;;;;;;;15.47;74.15;97946.80;1873377;75;25710;-84
2021/10/07 09:50:38;;;;;;;9.45;7.55;;;;;;;15.43;74.16;97945.62;1811443;77;25709;-84
2021/10/07 10:04:14;;;;;;;10.35;7.83;;;;;;;15.59;73.23;97943.33;1805326;77;25488;-84
2021/10/07 10:06:40;;;;;;;13.03;8.18;;;;;;;15.56;73.21;97943.28;1771936;78;25659;-84
2021/10/07 10:09:07;;;;;;;12.05;8.03;;;;;;;15.55;72.58;97947.59;1789952;78;27531;-84
2021/10/07 10:11:34;;;;;;;12.82;8.38;;;;;;;15.54;72.87;97939.09;1769257;78;25690;-85
2021/10/07 10:14:01;;;;;;;10.80;8.48;;;;;;;15.57;72.92;97942.75;1781005;78;25801;-83
2021/10/07 10:16:29;;;;;;;15.80;8.20;;;;;;;15.60;72.76;97934.11;1790156;78;25722;-85
2021/10/07 10:19:00;;;;;;;12.50;8.05;;;;;;;15.72;72.77;97937.70;1789720;78;25734;-83
2021/10/07 10:21:28;;;;;;;11.95;8.98;;;;;;;15.83;72.67;97932.30;1789992;78;27384;-84
2021/10/07 10:23:58;;;;;;;12.93;8.55;;;;;;;15.90;72.16;97930.86;1788601;78;25774;-85
2021/10/07 10:26:25;;;;;;;14.90;8.35;;;;;;;16.02;72.25;97930.89;1789952;78;25422;-83
2021/10/07 10:28:53;;;;;;;12.28;9.10;;;;;;;16.12;71.59;97929.25;1789945;78;25753;-84
2021/10/07 10:31:36;;;;;;;12.43;8.40;;;;;;;16.35;72.39;97934.43;1760151;78;25720;-83
2021/10/07 10:34:13;;;;;;;13.25;9.13;;;;;;;16.52;71.50;97927.23;1787129;78;27314;-84
2021/10/07 10:36:53;;;;;;;10.25;9.08;;;;;;;16.65;70.37;97940.66;1775087;78;26379;-83
2021/10/07 10:39:39;;;;;;;12.25;8.70;;;;;;;16.78;70.62;97935.50;1775992;78;25773;-85
2021/10/07 10:42:17;;;;;;;13.05;9.05;;;;;;;16.87;70.13;97932.16;1789946;78;25725;-85
2021/10/07 10:44:53;;;;;;;12.43;9.70;;;;;;;17.00;70.39;97934.34;1789626;78;25733;-83
2021/10/07 10:47:31;;;;;;;12.20;9.15;;;;;;;17.21;70.32;97936.44;1759269;80;28052;-83
2021/10/07 10:50:10;;;;;;;12.53;9.70;;;;;;;17.34;69.69;97940.79;1788553;78;25803;-85
2021/10/07 10:52:57;;;;;;;12.47;10.08;;;;;;;17.42;69.73;97934.41;1789975;78;25813;-84
2021/10/07 10:55:27;;;;;;;12.20;9.25;;;;;;;17.56;69.76;97942.61;1790022;78;25971;-84
2021/10/07 10:58:03;;;;;;;17.00;10.13;;;;;;;17.61;69.45;97937.27;1790159;78;25723;-83
2021/10/07 11:00:45;;;;;;;12.93;9.53;;;;;;;17.71;69.50;97941.29;1754620;78;27556;-82
2021/10/07 11:03:17;;;;;;;11.83;9.50;;;;;;;17.86;69.40;97944.31;1770651;78;25898;-85
2021/10/07 11:06:01;;;;;;;;;;;;;;;17.96;68.92;97939.87;1791202;78;25742;-85
2021/10/07 11:08:29;;;;;;;14.50;8.68;;;;;;;17.95;67.08;97942.30;1764404;78;25844;-83
2021/10/07 11:11:02;;;;;;;14.03;9.13;;;;;;;17.86;67.87;97941.59;1786992;78;25759;-85
2021/10/07 11:13:33;;;;;;;12.93;9.98;;;;;;;17.70;67.28;97940.99;1792814;78;28245;-84
2021/10/07 11:16:04;;;;;;;15.78;10.38;;;;;;;17.64;67.84;97932.69;1768482;78;26024;-85
2021/10/07 11:18:35;;;;;;;12.53;9.15;;;;;;;17.74;67.77;97927.16;1747252;78;25717;-83
2021/10/07 11:21:15;;;;;;;16.07;10.15;;;;;;;17.82;67.88;97924.02;1776978;78;25769;-84
2021/10/07 11:23:40;;;;;;;12.13;9.43;;;;;;;17.88;67.05;97921.66;1769993;78;26355;-83
2021/10/07 11:26:07;;;;;;;10.50;8.75;;;;;;;17.92;67.07;97933.23;1786766;78;27368;-83
2021/10/07 11:28:38;;;;;;;13.15;9.18;;;;;;;18.00;67.04;97929.25;1788768;78;25701;-83
2021/10/07 11:31:18;;;;;;;11.57;9.73;;;;;;;18.12;67.08;97921.81;1756606;78;25720;-82
2021/10/07 11:33:49;;;;;;;11.70;8.75;;;;;;;18.19;66.57;97921.14;1782513;78;25753;-84
2021/10/07 11:36:20;;;;;;;12.20;8.90;;;;;;;18.25;65.89;97928.87;1793709;78;25811;-82
2021/10/07 11:38:49;;;;;;;13.78;9.13;;;;;;;18.36;65.69;97927.42;1789086;78;28017;-83
2021/10/07 11:41:28;;;;;;;12.30;8.90;;;;;;;18.66;65.62;97939.42;1784065;78;25896;-84
2021/10/07 11:43:48;;;;;;;12.93;8.83;;;;;;;18.87;64.62;97936.45;1767569;78;25751;-86
2021/10/07 11:46:18;;;;;;;14.40;9.30;;;;;;;18.96;64.91;97933.56;1764384;78;25739;-85
2021/10/07 11:48:55;;;;;;;17.57;10.03;;;;;;;19.10;64.28;97942.77;1783323;78;25667;-86
2021/10/07 11:51:28;;;;;;;11.70;9.38;;;;;;;19.14;63.80;97937.09;1789431;78;27543;-85
2021/10/07 11:56:46;;;;;;;15.50;9.18;;;;;;;18.95;63.01;97946.98;1873328;75;25581;-82
2021/10/07 11:59:15;;;;;;;11.40;8.53;;;;;;;18.76;63.56;97944.22;1805998;77;25755;-81
2021/10/07 12:01:41;;;;;;;12.28;8.95;;;;;;;18.64;63.59;97941.58;1833370;75;27420;-81
2021/10/07 12:04:08;;;;;;;13.88;9.20;;;;;;;18.65;63.68;97943.77;1843390;75;26389;-82
2021/10/07 12:06:37;;;;;;;11.95;8.25;;;;;;;18.65;63.54;97943.23;1844692;76;25728;-81
2021/10/07 12:09:09;;;;;;;18.12;9.73;;;;;;;18.65;63.42;97945.14;1844106;75;25733;-83
2021/10/07 12:11:37;;;;;;;16.82;8.83;;;;;;;18.63;63.57;97940.45;1844820;77;26335;-82